»·PEaware :: AAL1789 KMIA-KIAD

AAL1789 :: KMIA-KIAD

FLIGHT INFORMATION

Flight Status: Arrived
Operator:
American Airlines
More flights by this operator :: More flights under this callsign
Pilot: Drew L. (13237)
Aircraft: BOEING 727-100
(B721)
More flights by this aircraft type
Origin: KMIA Miami Intl
United States
Destination: KIAD Washington Dulles Intl
United States
More flights between these airports :: More routes between these airports
Route: HEDLY2 HEDLY STYMY FEMON Q87 JROSS FLO RDU BZNGA DORRN CAVLR3
File this flight plan on PilotEdge
Remarks: PBN / A1B2 DOF / 181228 REG / N299SB EET / KZJX0025 KZDC0111 OPR / AAL RMK / TCAS SIMBRIEF
Altitude:
(Current/Filed)
29,000ft
Speed:
(Current/Filed)
488kts
Departed: 28-Dec-18 12:12 AM
Arrived: 28-Dec-18 02:12 AM
Distance/Time
Traveled:
802nm/1:59
Distance/Time
To Go:
Arrived

Flight Plot

Page will automatically refresh every two minutes.

Flight plan parsing failed; only flown route is shown


Map Options




Map Legend


Flown Route
Filed Route
Departure Airport
Arrival Airport
Navaid (VOR, NDB)
Fix

Horizontal Profiles

Position Reports

Time Latitude Longitude Heading Altitude Ground
Speed
27-Dec-18 23:54 25.796905 -80.286064 57 17ft 0kts
27-Dec-18 23:55 25.796905 -80.286064 57 17ft 0kts
27-Dec-18 23:56 25.796905 -80.286064 57 17ft 0kts
27-Dec-18 23:57 25.796905 -80.286064 57 17ft 0kts
27-Dec-18 23:58 25.796905 -80.286064 57 17ft 0kts
27-Dec-18 23:59 25.796905 -80.286064 57 17ft 0kts
28-Dec-18 00:00 25.796905 -80.286064 57 17ft 0kts
28-Dec-18 00:01 25.796905 -80.286064 57 17ft 0kts
28-Dec-18 00:02 25.796905 -80.286064 57 17ft 0kts
28-Dec-18 00:03 25.796905 -80.286064 57 17ft 0kts
28-Dec-18 00:04 25.796905 -80.286064 57 17ft 0kts
28-Dec-18 00:05 25.796486 -80.286002 267 17ft 3kts
28-Dec-18 00:06 25.797314 -80.294084 300 17ft 34kts
28-Dec-18 00:07 25.799036 -80.299565 285 17ft 0kts
28-Dec-18 00:08 25.799402 -80.300921 286 17ft 7kts
28-Dec-18 00:09 25.799193 -80.302053 120 17ft 0kts
28-Dec-18 00:10 25.799193 -80.302053 120 17ft 0kts
28-Dec-18 00:11 25.797059 -80.297972 117 18ft 91kts
28-Dec-18 00:12 25.777248 -80.262307 111 1292ft 135kts
28-Dec-18 00:13 25.802076 -80.224736 44 2430ft 171kts
28-Dec-18 00:14 25.832867 -80.184363 88 4213ft 171kts
28-Dec-18 00:15 25.852166 -80.135620 71 6564ft 178kts
28-Dec-18 00:16 25.877628 -80.086185 64 8429ft 203kts
28-Dec-18 00:17 25.916336 -80.018434 62 8971ft 323kts
28-Dec-18 00:18 25.966207 -79.931519 62 12223ft 340kts
28-Dec-18 00:19 26.018983 -79.839088 62 14857ft 363kts
28-Dec-18 00:20 26.074943 -79.740865 61 17201ft 384kts
28-Dec-18 00:21 26.133564 -79.637786 60 19265ft 402kts
28-Dec-18 00:22 26.194705 -79.530029 59 21107ft 417kts
28-Dec-18 00:23 26.257544 -79.419023 58 22780ft 430kts
28-Dec-18 00:24 26.321892 -79.305069 58 24286ft 441kts
28-Dec-18 00:25 26.388186 -79.188019 52 25631ft 449kts
28-Dec-18 00:26 26.493873 -79.125035 7 26757ft 437kts
28-Dec-18 00:27 26.613485 -79.101103 5 27881ft 439kts
28-Dec-18 00:28 26.734187 -79.078038 4 28918ft 442kts
28-Dec-18 00:29 26.856801 -79.054598 5 29020ft 454kts
28-Dec-18 00:30 26.982889 -79.030429 5 29021ft 467kts
28-Dec-18 00:31 27.112398 -79.005522 5 29021ft 480kts
28-Dec-18 00:32 27.245846 -78.979806 5 29019ft 494kts
28-Dec-18 00:33 27.381868 -78.953529 5 29186ft 502kts
28-Dec-18 00:34 27.521244 -78.932337 3 29185ft 510kts
28-Dec-18 00:35 27.663030 -78.912496 3 29184ft 515kts
28-Dec-18 00:36 27.805233 -78.892547 3 29184ft 515kts
28-Dec-18 00:37 27.947100 -78.872599 3 29188ft 515kts
28-Dec-18 00:38 28.089494 -78.852524 3 29192ft 516kts
28-Dec-18 00:39 28.232809 -78.832267 3 29193ft 516kts
28-Dec-18 00:40 28.375698 -78.812010 3 29191ft 516kts
28-Dec-18 00:41 28.519088 -78.791625 3 29185ft 516kts
28-Dec-18 00:42 28.662149 -78.771238 3 29185ft 516kts
28-Dec-18 00:43 28.805310 -78.750774 3 29185ft 517kts
28-Dec-18 00:44 28.948182 -78.730300 3 29185ft 517kts
28-Dec-18 00:45 29.091079 -78.709755 3 29186ft 517kts
28-Dec-18 00:46 29.233708 -78.689207 3 29186ft 517kts
28-Dec-18 00:47 29.376022 -78.668552 3 29189ft 517kts
28-Dec-18 00:48 29.519288 -78.646865 3 29189ft 517kts
28-Dec-18 00:49 29.662234 -78.625141 3 29189ft 518kts
28-Dec-18 00:50 29.805658 -78.603264 3 29186ft 518kts
28-Dec-18 00:51 29.948715 -78.581406 3 29186ft 518kts
28-Dec-18 00:52 30.091600 -78.559488 3 29187ft 518kts
28-Dec-18 00:53 30.235426 -78.537385 3 29185ft 518kts
28-Dec-18 00:54 30.379168 -78.515228 3 29214ft 518kts
28-Dec-18 00:55 30.522723 -78.493019 3 29220ft 518kts
28-Dec-18 00:56 30.665158 -78.470915 3 29224ft 513kts
28-Dec-18 00:57 30.807008 -78.448848 3 29225ft 510kts
28-Dec-18 00:58 30.947464 -78.426940 3 29223ft 507kts
28-Dec-18 00:59 31.087472 -78.405014 4 29227ft 505kts
28-Dec-18 01:00 31.225525 -78.383346 4 29231ft 503kts
28-Dec-18 01:01 31.365044 -78.361376 4 29232ft 502kts
28-Dec-18 01:02 31.502358 -78.339687 4 29226ft 501kts
28-Dec-18 01:03 31.641674 -78.317626 4 29234ft 499kts
28-Dec-18 01:04 31.779681 -78.295702 4 29240ft 498kts
28-Dec-18 01:05 31.918400 -78.273600 4 29226ft 498kts
28-Dec-18 01:06 32.055988 -78.251611 4 29227ft 497kts
28-Dec-18 01:07 32.193807 -78.229508 4 29226ft 497kts
28-Dec-18 01:08 32.331284 -78.207405 4 29231ft 496kts
28-Dec-18 01:09 32.468310 -78.185303 4 29235ft 496kts
28-Dec-18 01:10 32.605363 -78.163128 4 29251ft 496kts
28-Dec-18 01:11 32.741956 -78.140961 4 29259ft 496kts
28-Dec-18 01:12 32.878533 -78.118729 4 29258ft 496kts
28-Dec-18 01:13 33.015436 -78.096359 4 29258ft 496kts
28-Dec-18 01:14 33.152827 -78.073855 4 29263ft 497kts
28-Dec-18 01:15 33.290568 -78.051229 4 29264ft 498kts
28-Dec-18 01:16 33.428488 -78.028488 4 29265ft 500kts
28-Dec-18 01:17 33.566638 -78.005643 4 29265ft 501kts
28-Dec-18 01:18 33.705107 -77.982663 4 29266ft 502kts
28-Dec-18 01:19 33.843523 -77.959621 4 29267ft 503kts
28-Dec-18 01:20 33.982253 -77.936451 4 29267ft 504kts
28-Dec-18 01:21 34.121929 -77.913047 4 29264ft 505kts
28-Dec-18 01:22 34.261310 -77.889613 4 29265ft 505kts
28-Dec-18 01:23 34.400995 -77.865972 4 29265ft 506kts
28-Dec-18 01:24 34.541215 -77.842022 4 29271ft 506kts
28-Dec-18 01:25 34.681092 -77.818050 4 29269ft 507kts
28-Dec-18 01:26 34.821239 -77.793949 4 29271ft 508kts
28-Dec-18 01:27 34.961489 -77.769686 3 29261ft 509kts
28-Dec-18 01:28 35.102212 -77.745361 2 29250ft 511kts
28-Dec-18 01:29 35.243024 -77.720911 2 29257ft 513kts
28-Dec-18 01:30 35.384496 -77.696242 2 29258ft 514kts
28-Dec-18 01:31 35.526217 -77.671437 2 29249ft 516kts
28-Dec-18 01:33 35.667986 -77.646538 2 29266ft 517kts
28-Dec-18 01:34 35.810968 -77.621338 3 29261ft 519kts
28-Dec-18 01:35 35.953763 -77.596074 3 29257ft 520kts
28-Dec-18 01:36 36.097022 -77.570633 3 29256ft 521kts
28-Dec-18 01:37 36.241288 -77.544931 3 29259ft 522kts
28-Dec-18 01:38 36.384799 -77.519257 3 29273ft 522kts
28-Dec-18 01:39 36.528355 -77.493486 3 29262ft 523kts
28-Dec-18 01:40 36.672514 -77.467643 2 29262ft 523kts
28-Dec-18 01:41 36.816543 -77.441754 3 29264ft 524kts
28-Dec-18 01:42 36.960625 -77.415737 2 29169ft 515kts
28-Dec-18 01:43 37.100700 -77.390317 1 27655ft 507kts
28-Dec-18 01:44 37.238494 -77.365325 1 26093ft 498kts
28-Dec-18 01:45 37.374144 -77.340584 2 24617ft 489kts
28-Dec-18 01:46 37.507649 -77.319581 1 23129ft 480kts
28-Dec-18 01:47 37.639112 -77.301988 348 21756ft 461kts
28-Dec-18 01:48 37.742368 -77.372810 314 20234ft 416kts
28-Dec-18 01:49 37.837659 -77.453804 339 18455ft 433kts
28-Dec-18 01:50 37.960453 -77.449978 358 16819ft 441kts
28-Dec-18 01:50 38.061532 -77.440571 358 15612ft 434kts
28-Dec-18 01:52 38.196603 -77.427810 358 14044ft 427kts
28-Dec-18 01:52 38.294643 -77.418512 358 13310ft 422kts
28-Dec-18 01:54 38.430823 -77.405566 358 12300ft 417kts
28-Dec-18 01:54 38.526930 -77.396371 358 11752ft 410kts
28-Dec-18 01:56 38.657722 -77.383862 358 11140ft 398kts
28-Dec-18 01:56 38.749292 -77.375076 357 10698ft 391kts
28-Dec-18 01:58 38.874115 -77.363035 357 10093ft 382kts
28-Dec-18 01:58 38.956835 -77.354142 357 9927ft 332kts
28-Dec-18 01:59 39.040630 -77.342306 357 9731ft 275kts
28-Dec-18 02:00 39.109227 -77.331190 349 9486ft 213kts
28-Dec-18 02:01 39.173623 -77.326939 355 7552ft 253kts
28-Dec-18 02:02 39.239485 -77.325983 357 7059ft 214kts
28-Dec-18 02:03 39.290562 -77.340900 293 5870ft 204kts
28-Dec-18 02:04 39.253182 -77.391941 197 4489ft 237kts
28-Dec-18 02:05 39.194689 -77.413051 197 4273ft 199kts
28-Dec-18 02:06 39.143013 -77.428488 189 4264ft 189kts
28-Dec-18 02:07 39.089866 -77.439700 180 3757ft 213kts
28-Dec-18 02:08 39.027286 -77.438147 167 2300ft 223kts
28-Dec-18 02:09 38.982434 -77.426287 222 1474ft 166kts
28-Dec-18 02:10 38.948098 -77.436092 181 304ft 97kts
28-Dec-18 02:11 38.944408 -77.436187 180 307ft 0kts
28-Dec-18 02:12 38.944408 -77.436187 180 307ft 0kts

Navigation Log

Ident Type
Flight plan parsing failed, navigation log unavailable